sensor_id;sensor_type;location;lat;lon;timestamp;pressure;altitude;pressure_sealevel;temperature;humidity
22930;BME280;11630;42.660;23.292;2023-06-14T00:00:15;69497.35;;;17.81;100.00
22930;BME280;11630;42.660;23.292;2023-06-14T00:02:45;69504.17;;;17.89;100.00
22930;BME280;11630;42.660;23.292;2023-06-14T00:05:16;69531.03;;;18.08;100.00
22930;BME280;11630;42.660;23.292;2023-06-14T00:07:47;69525.86;;;17.97;100.00
22930;BME280;11630;42.660;23.292;2023-06-14T00:10:18;69527.45;;;18.11;100.00
22930;BME280;11630;42.660;23.292;2023-06-14T00:12:49;69543.08;;;18.24;100.00
22930;BME280;11630;42.660;23.292;2023-06-14T00:15:20;69558.18;;;18.27;100.00
22930;BME280;11630;42.660;23.292;2023-06-14T00:17:51;69564.47;;;18.39;100.00
22930;BME280;11630;42.660;23.292;2023-06-14T00:20:22;69549.67;;;18.18;100.00
22930;BME280;11630;42.660;23.292;2023-06-14T00:22:53;69546.41;;;18.15;100.00
22930;BME280;11630;42.660;23.292;2023-06-14T00:25:25;69551.62;;;18.21;100.00
22930;BME280;11630;42.660;23.292;2023-06-14T00:27:56;69551.88;;;18.20;100.00
22930;BME280;11630;42.660;23.292;2023-06-14T00:30:26;69565.05;;;18.32;100.00
22930;BME280;11630;42.660;23.292;2023-06-14T00:32:56;69554.05;;;18.32;100.00
22930;BME280;11630;42.660;23.292;2023-06-14T00:35:27;69565.89;;;18.26;100.00
22930;BME280;11630;42.660;23.292;2023-06-14T00:37:58;69536.52;;;18.13;100.00
22930;BME280;11630;42.660;23.292;2023-06-14T00:40:29;69528.30;;;18.06;100.00
22930;BME280;11630;42.660;23.292;2023-06-14T00:43:00;69538.13;;;18.20;100.00
22930;BME280;11630;42.660;23.292;2023-06-14T00:45:31;69547.22;;;18.17;100.00
22930;BME280;11630;42.660;23.292;2023-06-14T00:48:02;69548.59;;;18.22;100.00
22930;BME280;11630;42.660;23.292;2023-06-14T00:50:35;69556.01;;;18.25;100.00
22930;BME280;11630;42.660;23.292;2023-06-14T00:53:06;69559.83;;;18.31;100.00
22930;BME280;11630;42.660;23.292;2023-06-14T00:55:37;69568.38;;;18.25;100.00
22930;BME280;11630;42.660;23.292;2023-06-14T00:58:09;69553.23;;;18.30;100.00
22930;BME280;11630;42.660;23.292;2023-06-14T01:00:40;69546.92;;;18.25;100.00
22930;BME280;11630;42.660;23.292;2023-06-14T01:03:10;69566.70;;;18.31;100.00
22930;BME280;11630;42.660;23.292;2023-06-14T01:05:41;69559.27;;;18.30;100.00
22930;BME280;11630;42.660;23.292;2023-06-14T01:08:28;69551.31;;;18.27;100.00
22930;BME280;11630;42.660;23.292;2023-06-14T01:11:16;69546.65;;;18.19;100.00
22930;BME280;11630;42.660;23.292;2023-06-14T01:13:46;69518.16;;;17.98;100.00
22930;BME280;11630;42.660;23.292;2023-06-14T01:16:18;69508.56;;;17.93;100.00
22930;BME280;11630;42.660;23.292;2023-06-14T01:18:48;69508.84;;;17.92;100.00
22930;BME280;11630;42.660;23.292;2023-06-14T01:21:23;69516.48;;;18.04;100.00
22930;BME280;11630;42.660;23.292;2023-06-14T01:23:54;69522.55;;;18.02;100.00
22930;BME280;11630;42.660;23.292;2023-06-14T01:26:26;69534.89;;;18.07;100.00
22930;BME280;11630;42.660;23.292;2023-06-14T01:28:57;69537.88;;;18.16;100.00
22930;BME280;11630;42.660;23.292;2023-06-14T01:31:28;69541.44;;;18.23;100.00
22930;BME280;11630;42.660;23.292;2023-06-14T01:33:59;69558.71;;;18.32;100.00
22930;BME280;11630;42.660;23.292;2023-06-14T01:36:30;69533.23;;;18.08;100.00
22930;BME280;11630;42.660;23.292;2023-06-14T01:39:02;69552.96;;;18.26;100.00
22930;BME280;11630;42.660;23.292;2023-06-14T01:41:35;69553.47;;;18.34;100.00
22930;BME280;11630;42.660;23.292;2023-06-14T01:44:07;69565.84;;;18.34;100.00
22930;BME280;11630;42.660;23.292;2023-06-14T01:46:38;69576.84;;;18.39;100.00
22930;BME280;11630;42.660;23.292;2023-06-14T01:49:09;69555.95;;;18.35;100.00
22930;BME280;11630;42.660;23.292;2023-06-14T01:51:41;69550.72;;;18.34;100.00
22930;BME280;11630;42.660;23.292;2023-06-14T01:54:11;69569.17;;;18.32;100.00
22930;BME280;11630;42.660;23.292;2023-06-14T01:56:42;69572.72;;;18.39;100.00
22930;BME280;11630;42.660;23.292;2023-06-14T01:59:13;69545.01;;;18.25;100.00
22930;BME280;11630;42.660;23.292;2023-06-14T02:01:44;69523.64;;;18.00;100.00
22930;BME280;11630;42.660;23.292;2023-06-14T02:04:15;69494.34;;;17.75;100.00
22930;BME280;11630;42.660;23.292;2023-06-14T02:06:46;69483.98;;;17.61;100.00
22930;BME280;11630;42.660;23.292;2023-06-14T02:09:16;69467.52;;;17.53;100.00
22930;BME280;11630;42.660;23.292;2023-06-14T02:11:48;69487.54;;;17.65;100.00
22930;BME280;11630;42.660;23.292;2023-06-14T02:14:19;69474.09;;;17.59;100.00
22930;BME280;11630;42.660;23.292;2023-06-14T02:16:50;69488.11;;;17.58;100.00
22930;BME280;11630;42.660;23.292;2023-06-14T02:19:21;69481.50;;;17.62;100.00
22930;BME280;11630;42.660;23.292;2023-06-14T02:21:52;69481.73;;;17.71;100.00
22930;BME280;11630;42.660;23.292;2023-06-14T02:24:21;69488.59;;;17.73;100.00
22930;BME280;11630;42.660;23.292;2023-06-14T02:26:52;69496.55;;;17.77;100.00
22930;BME280;11630;42.660;23.292;2023-06-14T02:29:23;69481.75;;;17.66;100.00
22930;BME280;11630;42.660;23.292;2023-06-14T02:31:54;69477.11;;;17.61;100.00
22930;BME280;11630;42.660;23.292;2023-06-14T02:34:24;69473.30;;;17.50;100.00
22930;BME280;11630;42.660;23.292;2023-06-14T02:36:55;69457.67;;;17.44;100.00
22930;BME280;11630;42.660;23.292;2023-06-14T02:39:26;69488.88;;;17.70;100.00
22930;BME280;11630;42.660;23.292;2023-06-14T02:41:57;69492.41;;;17.79;100.00
22930;BME280;11630;42.660;23.292;2023-06-14T02:44:28;69502.83;;;17.84;100.00
22930;BME280;11630;42.660;23.292;2023-06-14T02:46:59;69500.91;;;17.86;100.00
22930;BME280;11630;42.660;23.292;2023-06-14T02:49:30;69488.05;;;17.71;100.00
22930;BME280;11630;42.660;23.292;2023-06-14T02:52:01;69480.94;;;17.67;100.00
22930;BME280;11630;42.660;23.292;2023-06-14T02:54:32;69481.20;;;17.66;100.00
22930;BME280;11630;42.660;23.292;2023-06-14T02:57:03;69475.45;;;17.59;100.00
22930;BME280;11630;42.660;23.292;2023-06-14T02:59:34;69470.81;;;17.56;100.00
22930;BME280;11630;42.660;23.292;2023-06-14T03:02:05;69465.63;;;17.45;100.00
22930;BME280;11630;42.660;23.292;2023-06-14T03:04:35;69442.34;;;17.33;100.00
22930;BME280;11630;42.660;23.292;2023-06-14T03:07:07;69447.84;;;17.30;100.00
22930;BME280;11630;42.660;23.292;2023-06-14T03:09:40;69462.63;;;17.44;100.00
22930;BME280;11630;42.660;23.292;2023-06-14T03:12:10;69455.50;;;17.42;100.00
22930;BME280;11630;42.660;23.292;2023-06-14T03:14:40;69456.30;;;17.44;100.00
22930;BME280;11630;42.660;23.292;2023-06-14T03:17:12;69463.19;;;17.39;100.00
22930;BME280;11630;42.660;23.292;2023-06-14T03:19:43;69449.75;;;17.36;100.00
22930;BME280;11630;42.660;23.292;2023-06-14T03:22:14;69449.77;;;17.33;100.00
22930;BME280;11630;42.660;23.292;2023-06-14T03:24:45;69455.50;;;17.37;100.00
22930;BME280;11630;42.660;23.292;2023-06-14T03:27:16;69464.80;;;17.48;100.00
22930;BME280;11630;42.660;23.292;2023-06-14T03:29:47;69468.08;;;17.51;100.00
22930;BME280;11630;42.660;23.292;2023-06-14T03:32:18;69469.99;;;17.54;100.00
22930;BME280;11630;42.660;23.292;2023-06-14T03:34:49;69471.13;;;17.45;100.00
22930;BME280;11630;42.660;23.292;2023-06-14T03:37:20;69442.62;;;17.34;100.00
22930;BME280;11630;42.660;23.292;2023-06-14T03:39:51;69440.45;;;17.25;100.00
22930;BME280;11630;42.660;23.292;2023-06-14T03:42:22;69441.58;;;17.13;100.00
22930;BME280;11630;42.660;23.292;2023-06-14T03:44:52;69418.52;;;17.15;100.00
22930;BME280;11630;42.660;23.292;2023-06-14T03:47:22;69412.51;;;17.07;100.00
22930;BME280;11630;42.660;23.292;2023-06-14T03:49:53;69423.20;;;17.10;100.00
22930;BME280;11630;42.660;23.292;2023-06-14T03:52:24;69428.13;;;17.15;100.00
22930;BME280;11630;42.660;23.292;2023-06-14T03:54:55;69440.15;;;17.26;100.00
22930;BME280;11630;42.660;23.292;2023-06-14T03:57:26;69473.81;;;17.60;100.00
22930;BME280;11630;42.660;23.292;2023-06-14T03:59:57;69522.84;;;17.93;100.00
22930;BME280;11630;42.660;23.292;2023-06-14T04:02:28;69620.08;;;18.83;100.00
22930;BME280;11630;42.660;23.292;2023-06-14T04:04:59;69675.97;;;19.41;100.00
22930;BME280;11630;42.660;23.292;2023-06-14T04:07:29;69710.25;;;19.68;100.00
22930;BME280;11630;42.660;23.292;2023-06-14T04:10:00;69676.00;;;19.33;100.00
22930;BME280;11630;42.660;23.292;2023-06-14T04:12:31;69620.61;;;18.88;100.00
22930;BME280;11630;42.660;23.292;2023-06-14T04:15:04;69608.81;;;18.81;100.00
22930;BME280;11630;42.660;23.292;2023-06-14T04:17:34;69591.56;;;18.64;100.00
22930;BME280;11630;42.660;23.292;2023-06-14T04:20:06;69593.48;;;18.62;100.00
22930;BME280;11630;42.660;23.292;2023-06-14T04:22:37;69604.14;;;18.78;100.00
22930;BME280;11630;42.660;23.292;2023-06-14T04:25:08;69611.03;;;18.76;100.00
22930;BME280;11630;42.660;23.292;2023-06-14T04:27:39;69538.95;;;18.19;100.00
22930;BME280;11630;42.660;23.292;2023-06-14T04:30:10;69560.12;;;18.20;100.00
22930;BME280;11630;42.660;23.292;2023-06-14T04:32:40;69573.59;;;18.28;100.00
22930;BME280;11630;42.660;23.292;2023-06-14T04:35:11;69510.50;;;17.91;100.00
22930;BME280;11630;42.660;23.292;2023-06-14T04:37:42;69500.66;;;17.77;100.00
22930;BME280;11630;42.660;23.292;2023-06-14T04:40:13;69492.45;;;17.72;100.00
22930;BME280;11630;42.660;23.292;2023-06-14T04:42:44;69509.41;;;17.87;100.00
22930;BME280;11630;42.660;23.292;2023-06-14T04:45:17;69528.55;;;18.07;100.00
22930;BME280;11630;42.660;23.292;2023-06-14T04:47:52;69515.95;;;18.01;100.00
22930;BME280;11630;42.660;23.292;2023-06-14T04:50:22;69518.42;;;18.02;100.00
22930;BME280;11630;42.660;23.292;2023-06-14T04:52:54;69535.68;;;18.14;100.00
22930;BME280;11630;42.660;23.292;2023-06-14T04:55:25;69522.53;;;18.04;100.00
22930;BME280;11630;42.660;23.292;2023-06-14T04:57:54;69580.92;;;18.46;100.00
22930;BME280;11630;42.660;23.292;2023-06-14T05:00:25;69583.61;;;18.58;100.00
22930;BME280;11630;42.660;23.292;2023-06-14T05:02:56;69612.40;;;18.78;100.00
22930;BME280;11630;42.660;23.292;2023-06-14T05:05:27;69621.17;;;18.86;100.00
22930;BME280;11630;42.660;23.292;2023-06-14T05:07:58;69632.98;;;18.91;100.00
22930;BME280;11630;42.660;23.292;2023-06-14T05:10:29;69639.24;;;19.03;100.00
22930;BME280;11630;42.660;23.292;2023-06-14T05:13:00;69636.48;;;19.03;100.00
22930;BME280;11630;42.660;23.292;2023-06-14T05:15:31;69643.33;;;19.15;100.00
22930;BME280;11630;42.660;23.292;2023-06-14T05:18:02;69665.23;;;19.40;100.00
22930;BME280;11630;42.660;23.292;2023-06-14T05:20:33;69709.66;;;19.73;100.00
22930;BME280;11630;42.660;23.292;2023-06-14T05:23:04;69702.37;;;19.47;100.00
22930;BME280;11630;42.660;23.292;2023-06-14T05:25:34;69684.73;;;19.49;100.00
22930;BME280;11630;42.660;23.292;2023-06-14T05:28:05;69660.84;;;19.33;100.00
22930;BME280;11630;42.660;23.292;2023-06-14T05:30:37;69706.13;;;19.63;100.00
22930;BME280;11630;42.660;23.292;2023-06-14T05:33:07;69687.28;;;19.37;100.00
22930;BME280;11630;42.660;23.292;2023-06-14T05:35:37;69642.27;;;19.09;100.00
22930;BME280;11630;42.660;23.292;2023-06-14T05:38:08;69684.23;;;19.41;100.00
22930;BME280;11630;42.660;23.292;2023-06-14T05:40:39;69678.70;;;19.43;100.00
22930;BME280;11630;42.660;23.292;2023-06-14T05:43:10;69686.94;;;19.48;100.00
22930;BME280;11630;42.660;23.292;2023-06-14T05:45:41;69690.27;;;19.44;100.00
22930;BME280;11630;42.660;23.292;2023-06-14T05:48:12;69671.88;;;19.31;100.00
22930;BME280;11630;42.660;23.292;2023-06-14T05:50:43;69683.15;;;19.37;100.00
22930;BME280;11630;42.660;23.292;2023-06-14T05:53:14;69708.63;;;19.62;100.00
22930;BME280;11630;42.660;23.292;2023-06-14T05:55:45;69722.84;;;19.80;100.00
22930;BME280;11630;42.660;23.292;2023-06-14T05:58:16;69723.14;;;19.79;100.00
22930;BME280;11630;42.660;23.292;2023-06-14T06:00:47;69707.73;;;19.72;100.00
22930;BME280;11630;42.660;23.292;2023-06-14T06:03:17;69705.59;;;19.63;100.00
22930;BME280;11630;42.660;23.292;2023-06-14T06:05:48;69709.17;;;19.65;100.00
22930;BME280;11630;42.660;23.292;2023-06-14T06:08:17;69716.30;;;19.69;100.00
22930;BME280;11630;42.660;23.292;2023-06-14T06:10:48;69695.69;;;19.59;100.00
22930;BME280;11630;42.660;23.292;2023-06-14T06:13:20;69674.34;;;19.34;100.00
22930;BME280;11630;42.660;23.292;2023-06-14T06:15:51;69703.52;;;19.41;100.00
22930;BME280;11630;42.660;23.292;2023-06-14T06:18:22;69696.30;;;19.49;100.00
22930;BME280;11630;42.660;23.292;2023-06-14T06:20:52;69666.38;;;19.31;100.00
22930;BME280;11630;42.660;23.292;2023-06-14T06:23:23;69663.08;;;19.31;100.00
22930;BME280;11630;42.660;23.292;2023-06-14T06:25:54;69674.91;;;19.35;100.00
22930;BME280;11630;42.660;23.292;2023-06-14T06:28:25;69676.52;;;19.39;100.00
22930;BME280;11630;42.660;23.292;2023-06-14T06:30:56;69672.15;;;19.35;100.00
22930;BME280;11630;42.660;23.292;2023-06-14T06:33:27;69694.43;;;19.39;100.00
22930;BME280;11630;42.660;23.292;2023-06-14T06:35:58;69684.49;;;19.42;100.00
22930;BME280;11630;42.660;23.292;2023-06-14T06:38:31;69657.29;;;19.29;100.00
22930;BME280;11630;42.660;23.292;2023-06-14T06:41:02;69655.13;;;19.22;100.00
22930;BME280;11630;42.660;23.292;2023-06-14T06:43:32;69681.53;;;19.31;100.00
22930;BME280;11630;42.660;23.292;2023-06-14T06:46:02;69708.13;;;19.54;100.00
22930;BME280;11630;42.660;23.292;2023-06-14T06:48:33;69699.61;;;19.47;100.00
22930;BME280;11630;42.660;23.292;2023-06-14T06:51:04;69677.63;;;19.40;100.00
22930;BME280;11630;42.660;23.292;2023-06-14T06:53:35;69697.92;;;19.56;100.00
22930;BME280;11630;42.660;23.292;2023-06-14T06:56:06;69685.34;;;19.37;100.00
22930;BME280;11630;42.660;23.292;2023-06-14T06:58:37;69719.11;;;19.59;100.00
22930;BME280;11630;42.660;23.292;2023-06-14T07:01:08;69736.02;;;19.92;100.00
22930;BME280;11630;42.660;23.292;2023-06-14T07:03:39;69784.53;;;20.39;100.00
22930;BME280;11630;42.660;23.292;2023-06-14T07:06:10;69844.16;;;20.85;100.00
22930;BME280;11630;42.660;23.292;2023-06-14T07:08:41;69890.28;;;21.24;100.00
22930;BME280;11630;42.660;23.292;2023-06-14T07:11:12;69878.41;;;21.22;100.00
22930;BME280;11630;42.660;23.292;2023-06-14T07:13:42;69873.53;;;21.10;100.00
22930;BME280;11630;42.660;23.292;2023-06-14T07:16:13;69906.97;;;21.48;100.00
22930;BME280;11630;42.660;23.292;2023-06-14T07:18:44;69912.73;;;21.54;100.00
22930;BME280;11630;42.660;23.292;2023-06-14T07:21:15;69904.81;;;21.41;100.00
22930;BME280;11630;42.660;23.292;2023-06-14T07:23:45;69918.00;;;21.50;100.00
22930;BME280;11630;42.660;23.292;2023-06-14T07:26:15;69921.87;;;21.51;100.00
22930;BME280;11630;42.660;23.292;2023-06-14T07:28:46;69889.39;;;21.32;100.00
22930;BME280;11630;42.660;23.292;2023-06-14T07:31:18;69897.62;;;21.42;100.00
22930;BME280;11630;42.660;23.292;2023-06-14T07:33:50;69905.39;;;21.36;100.00
22930;BME280;11630;42.660;23.292;2023-06-14T07:36:21;69925.22;;;21.47;100.00
22930;BME280;11630;42.660;23.292;2023-06-14T07:38:51;69919.08;;;21.54;100.00
22930;BME280;11630;42.660;23.292;2023-06-14T07:41:23;69896.54;;;21.36;100.00
22930;BME280;11630;42.660;23.292;2023-06-14T07:43:54;69911.91;;;21.50;100.00
22930;BME280;11630;42.660;23.292;2023-06-14T07:46:25;69858.38;;;21.02;100.00
22930;BME280;11630;42.660;23.292;2023-06-14T07:48:56;69858.38;;;21.02;100.00
22930;BME280;11630;42.660;23.292;2023-06-14T07:51:26;69877.48;;;20.98;100.00
22930;BME280;11630;42.660;23.292;2023-06-14T07:53:59;69857.84;;;21.02;100.00
22930;BME280;11630;42.660;23.292;2023-06-14T07:56:29;69870.27;;;21.02;100.00
22930;BME280;11630;42.660;23.292;2023-06-14T07:59:00;69891.73;;;21.14;100.00
22930;BME280;11630;42.660;23.292;2023-06-14T08:01:31;69879.84;;;21.17;100.00
22930;BME280;11630;42.660;23.292;2023-06-14T08:04:02;69879.84;;;21.17;100.00
22930;BME280;11630;42.660;23.292;2023-06-14T08:06:34;69887.89;;;21.10;100.00
22930;BME280;11630;42.660;23.292;2023-06-14T08:09:04;69879.84;;;21.17;100.00
22930;BME280;11630;42.660;23.292;2023-06-14T08:11:36;69859.46;;;21.08;100.00
22930;BME280;11630;42.660;23.292;2023-06-14T08:14:06;69849.36;;;20.90;100.00
22930;BME280;11630;42.660;23.292;2023-06-14T08:16:38;69864.92;;;21.16;100.00
22930;BME280;11630;42.660;23.292;2023-06-14T08:19:09;69906.30;;;21.26;100.00
22930;BME280;11630;42.660;23.292;2023-06-14T08:21:40;69934.89;;;21.47;100.00
22930;BME280;11630;42.660;23.292;2023-06-14T08:24:12;69908.67;;;21.42;100.00
22930;BME280;11630;42.660;23.292;2023-06-14T08:26:43;69894.38;;;21.29;100.00
22930;BME280;11630;42.660;23.292;2023-06-14T08:29:14;69915.77;;;21.51;100.00
22930;BME280;11630;42.660;23.292;2023-06-14T08:31:47;69958.45;;;21.78;100.00
22930;BME280;11630;42.660;23.292;2023-06-14T08:34:19;69958.31;;;21.95;100.00
22930;BME280;11630;42.660;23.292;2023-06-14T08:36:50;69998.72;;;22.28;100.00
22930;BME280;11630;42.660;23.292;2023-06-14T08:39:21;70007.28;;;22.32;100.00
22930;BME280;11630;42.660;23.292;2023-06-14T08:41:52;70064.00;;;22.71;100.00
22930;BME280;11630;42.660;23.292;2023-06-14T08:44:24;70053.12;;;22.80;100.00
22930;BME280;11630;42.660;23.292;2023-06-14T08:46:57;70141.35;;;23.32;100.00
22930;BME280;11630;42.660;23.292;2023-06-14T08:49:29;70109.60;;;23.17;100.00
22930;BME280;11630;42.660;23.292;2023-06-14T08:52:00;70145.77;;;23.36;100.00
22930;BME280;11630;42.660;23.292;2023-06-14T08:54:32;70152.98;;;23.64;100.00
22930;BME280;11630;42.660;23.292;2023-06-14T08:57:04;70158.59;;;23.59;100.00
22930;BME280;11630;42.660;23.292;2023-06-14T08:59:35;70135.69;;;23.44;100.00
22930;BME280;11630;42.660;23.292;2023-06-14T09:02:07;70193.83;;;23.88;100.00
22930;BME280;11630;42.660;23.292;2023-06-14T09:04:38;70199.08;;;24.18;100.00
22930;BME280;11630;42.660;23.292;2023-06-14T09:07:08;70205.66;;;23.98;100.00
22930;BME280;11630;42.660;23.292;2023-06-14T09:09:40;70195.64;;;24.01;99.48
22930;BME280;11630;42.660;23.292;2023-06-14T09:12:12;70238.05;;;24.34;96.92
22930;BME280;11630;42.660;23.292;2023-06-14T09:14:43;70260.22;;;24.42;96.87
22930;BME280;11630;42.660;23.292;2023-06-14T09:17:14;70240.05;;;24.30;98.77
22930;BME280;11630;42.660;23.292;2023-06-14T09:19:46;70313.27;;;24.98;97.63
22930;BME280;11630;42.660;23.292;2023-06-14T09:22:17;70357.71;;;25.30;95.85
22930;BME280;11630;42.660;23.292;2023-06-14T09:24:48;70290.45;;;24.74;95.42
22930;BME280;11630;42.660;23.292;2023-06-14T09:27:19;70325.63;;;25.13;95.31
22930;BME280;11630;42.660;23.292;2023-06-14T09:29:49;70325.67;;;25.08;98.46
22930;BME280;11630;42.660;23.292;2023-06-14T09:32:21;70292.58;;;24.83;97.08
22930;BME280;11630;42.660;23.292;2023-06-14T09:34:52;70348.89;;;25.24;93.03
22930;BME280;11630;42.660;23.292;2023-06-14T09:37:33;70290.96;;;24.80;93.37
22930;BME280;11630;42.660;23.292;2023-06-14T09:40:05;70297.85;;;24.84;92.74
22930;BME280;11630;42.660;23.292;2023-06-14T09:42:36;70251.69;;;24.33;97.71
22930;BME280;11630;42.660;23.292;2023-06-14T09:45:08;70305.84;;;24.90;96.18
22930;BME280;11630;42.660;23.292;2023-06-14T09:47:40;70342.29;;;25.16;91.70
22930;BME280;11630;42.660;23.292;2023-06-14T09:50:11;70327.92;;;25.05;91.37
22930;BME280;11630;42.660;23.292;2023-06-14T09:52:43;70359.89;;;25.34;89.93
22930;BME280;11630;42.660;23.292;2023-06-14T09:55:16;70360.93;;;25.40;89.30
22930;BME280;11630;42.660;23.292;2023-06-14T09:57:46;70396.83;;;25.65;87.53
22930;BME280;11630;42.660;23.292;2023-06-14T10:00:19;70372.70;;;25.57;88.28
22930;BME280;11630;42.660;23.292;2023-06-14T10:02:53;70423.48;;;25.98;86.79
22930;BME280;11630;42.660;23.292;2023-06-14T10:05:25;70446.34;;;26.20;85.81
22930;BME280;11630;42.660;23.292;2023-06-14T10:08:04;70449.20;;;26.12;83.87
22930;BME280;11630;42.660;23.292;2023-06-14T10:10:32;70413.31;;;25.87;84.48
22930;BME280;11630;42.660;23.292;2023-06-14T10:13:03;70368.99;;;25.41;87.48
22930;BME280;11630;42.660;23.292;2023-06-14T10:18:21;70351.18;;;25.43;87.97
22930;BME280;11630;42.660;23.292;2023-06-14T10:21:05;70311.52;;;25.04;91.26
22930;BME280;11630;42.660;23.292;2023-06-14T10:23:37;70326.52;;;25.10;87.92
22930;BME280;11630;42.660;23.292;2023-06-14T10:26:06;70355.17;;;25.34;87.35
22930;BME280;11630;42.660;23.292;2023-06-14T10:28:39;70300.28;;;24.90;92.36
22930;BME280;11630;42.660;23.292;2023-06-14T10:31:13;70329.06;;;25.04;88.12
22930;BME280;11630;42.660;23.292;2023-06-14T10:34:01;70349.45;;;25.22;86.85
22930;BME280;11630;42.660;23.292;2023-06-14T10:36:24;70400.69;;;25.68;84.23
22930;BME280;11630;42.660;23.292;2023-06-14T10:39:09;70391.73;;;25.73;83.78
22930;BME280;11630;42.660;23.292;2023-06-14T10:41:41;70351.55;;;25.34;86.19
22930;BME280;11630;42.660;23.292;2023-06-14T10:46:53;70312.69;;;25.00;86.28
22930;BME280;11630;42.660;23.292;2023-06-14T10:49:43;70331.52;;;25.07;87.09
22930;BME280;11630;42.660;23.292;2023-06-14T10:52:15;70377.98;;;25.58;83.83
22930;BME280;11630;42.660;23.292;2023-06-14T10:55:06;70399.06;;;25.91;82.49
22930;BME280;11630;42.660;23.292;2023-06-14T10:57:53;70391.27;;;25.65;81.93
22930;BME280;11630;42.660;23.292;2023-06-14T11:00:28;70418.06;;;25.85;81.64
22930;BME280;11630;42.660;23.292;2023-06-14T11:05:53;70540.47;;;26.96;75.58
22930;BME280;11630;42.660;23.292;2023-06-14T11:11:12;70609.98;;;27.61;74.52
22930;BME280;11630;42.660;23.292;2023-06-14T11:13:46;70692.81;;;28.33;71.41
22930;BME280;11630;42.660;23.292;2023-06-14T11:16:18;70688.58;;;28.35;68.35
22930;BME280;11630;42.660;23.292;2023-06-14T11:18:49;70725.61;;;28.66;68.59
22930;BME280;11630;42.660;23.292;2023-06-14T11:21:20;70735.84;;;28.74;66.98
22930;BME280;11630;42.660;23.292;2023-06-14T11:23:52;70708.76;;;28.52;67.65
22930;BME280;11630;42.660;23.292;2023-06-14T11:26:26;70582.38;;;27.36;68.48
22930;BME280;11630;42.660;23.292;2023-06-14T11:28:59;70514.25;;;26.73;70.94
22930;BME280;11630;42.660;23.292;2023-06-14T11:31:44;70503.41;;;26.70;71.88
22930;BME280;11630;42.660;23.292;2023-06-14T11:34:09;70549.50;;;27.10;72.38
22930;BME280;11630;42.660;23.292;2023-06-14T11:36:39;70583.49;;;27.56;68.27
22930;BME280;11630;42.660;23.292;2023-06-14T11:39:11;70645.00;;;27.94;68.10
22930;BME280;11630;42.660;23.292;2023-06-14T11:41:43;70608.05;;;27.58;68.11
22930;BME280;11630;42.660;23.292;2023-06-14T11:44:14;70477.30;;;26.43;71.97
22930;BME280;11630;42.660;23.292;2023-06-14T11:46:46;70513.45;;;26.71;72.66
22930;BME280;11630;42.660;23.292;2023-06-14T11:49:17;70468.15;;;26.38;74.85
22930;BME280;11630;42.660;23.292;2023-06-14T11:51:47;70458.98;;;26.34;77.10
22930;BME280;11630;42.660;23.292;2023-06-14T11:54:18;70477.87;;;26.41;76.56
22930;BME280;11630;42.660;23.292;2023-06-14T11:56:49;70458.28;;;26.22;76.16
22930;BME280;11630;42.660;23.292;2023-06-14T11:59:21;70427.56;;;26.05;76.06
22930;BME280;11630;42.660;23.292;2023-06-14T12:01:53;70435.10;;;26.03;75.62
22930;BME280;11630;42.660;23.292;2023-06-14T12:04:30;70434.17;;;26.11;73.29
22930;BME280;11630;42.660;23.292;2023-06-14T12:07:10;70391.20;;;25.70;74.84
22930;BME280;11630;42.660;23.292;2023-06-14T12:12:26;70474.53;;;26.38;74.31
22930;BME280;11630;42.660;23.292;2023-06-14T12:14:56;70562.51;;;27.18;71.09
22930;BME280;11630;42.660;23.292;2023-06-14T12:17:31;70572.93;;;27.32;69.06
22930;BME280;11630;42.660;23.292;2023-06-14T12:20:04;70613.58;;;27.63;68.82
22930;BME280;11630;42.660;23.292;2023-06-14T12:22:30;70697.41;;;28.43;67.83
22930;BME280;11630;42.660;23.292;2023-06-14T12:25:02;70687.55;;;28.29;67.70
22930;BME280;11630;42.660;23.292;2023-06-14T12:27:33;70686.72;;;28.30;67.06
22930;BME280;11630;42.660;23.292;2023-06-14T12:30:06;70647.80;;;27.94;67.65
22930;BME280;11630;42.660;23.292;2023-06-14T12:32:37;70598.11;;;27.49;66.70
22930;BME280;11630;42.660;23.292;2023-06-14T12:35:08;70581.30;;;27.32;67.91
22930;BME280;11630;42.660;23.292;2023-06-14T12:37:39;70609.98;;;27.61;68.21
22930;BME280;11630;42.660;23.292;2023-06-14T12:40:12;70666.27;;;28.11;66.56
22930;BME280;11630;42.660;23.292;2023-06-14T12:42:44;70694.16;;;28.38;66.20
22930;BME280;11630;42.660;23.292;2023-06-14T12:45:14;70656.53;;;28.09;65.58
22930;BME280;11630;42.660;23.292;2023-06-14T12:47:45;70593.50;;;27.60;67.78
22930;BME280;11630;42.660;23.292;2023-06-14T12:50:16;70518.67;;;26.77;68.77
22930;BME280;11630;42.660;23.292;2023-06-14T12:52:47;70478.97;;;26.42;71.51
22930;BME280;11630;42.660;23.292;2023-06-14T12:55:17;70464.31;;;26.30;73.51
22930;BME280;11630;42.660;23.292;2023-06-14T12:57:48;70411.84;;;25.92;76.30
22930;BME280;11630;42.660;23.292;2023-06-14T13:00:18;70397.88;;;25.71;77.19
22930;BME280;11630;42.660;23.292;2023-06-14T13:02:49;70354.67;;;25.28;81.21
22930;BME280;11630;42.660;23.292;2023-06-14T13:05:21;70336.70;;;25.18;83.47
22930;BME280;11630;42.660;23.292;2023-06-14T13:07:51;70317.21;;;24.94;85.50
22930;BME280;11630;42.660;23.292;2023-06-14T13:10:21;70295.30;;;24.88;87.30
22930;BME280;11630;42.660;23.292;2023-06-14T13:12:51;70285.97;;;24.78;88.60
22930;BME280;11630;42.660;23.292;2023-06-14T13:15:22;70294.88;;;24.76;88.33
22930;BME280;11630;42.660;23.292;2023-06-14T13:17:53;70266.46;;;24.56;90.34